createdAt,value
2019-05-03T00:00:15.869Z,0
2019-05-03T00:01:17.275Z,0
2019-05-03T00:02:18.685Z,0
2019-05-03T00:03:20.089Z,0
2019-05-03T00:04:22.384Z,0
2019-05-03T00:05:22.859Z,0
2019-05-03T00:06:24.252Z,0
2019-05-03T00:07:25.651Z,0
2019-05-03T00:08:27.053Z,0
2019-05-03T00:09:28.473Z,0
2019-05-03T00:10:31.659Z,0
2019-05-03T00:11:32.613Z,0
2019-05-03T00:12:32.735Z,0
2019-05-03T00:13:34.053Z,0
2019-05-03T00:14:35.463Z,0
2019-05-03T00:15:36.875Z,0
2019-05-03T00:16:38.262Z,0
2019-05-03T00:17:39.661Z,0
2019-05-03T00:18:42.188Z,0
2019-05-03T00:19:42.413Z,0
2019-05-03T00:20:43.811Z,0
2019-05-03T00:21:45.199Z,0
2019-05-03T00:22:46.599Z,0
2019-05-03T00:23:48.033Z,0
2019-05-03T00:25:02.234Z,0
2019-05-03T00:25:52.243Z,0
2019-05-03T00:26:52.262Z,0
2019-05-03T00:27:53.645Z,0
2019-05-03T00:28:55.046Z,0
2019-05-03T00:29:56.465Z,0
2019-05-03T00:30:57.865Z,0
2019-05-03T00:31:59.259Z,0
2019-05-03T00:33:02.716Z,0
2019-05-03T00:34:02.282Z,0
2019-05-03T00:35:03.397Z,0
2019-05-03T00:36:04.800Z,0
2019-05-03T00:37:06.194Z,0
2019-05-03T00:38:07.585Z,0
2019-05-03T00:39:08.975Z,0
2019-05-03T00:40:12.157Z,0
2019-05-03T00:41:12.176Z,0
2019-05-03T00:42:13.108Z,0
2019-05-03T00:43:14.512Z,0
2019-05-03T00:44:15.910Z,0
2019-05-03T00:45:17.305Z,0
2019-05-03T00:46:18.702Z,0
2019-05-03T00:47:22.041Z,0
2019-05-03T00:48:21.979Z,0
2019-05-03T00:49:22.826Z,0
2019-05-03T00:50:24.237Z,0
2019-05-03T00:51:25.632Z,0
2019-05-03T00:52:27.025Z,0
2019-05-03T00:53:28.432Z,0
2019-05-03T00:54:31.572Z,0
2019-05-03T00:55:32.615Z,0
2019-05-03T00:56:32.552Z,0
2019-05-03T00:57:33.964Z,0
2019-05-03T00:58:35.359Z,0
2019-05-03T00:59:36.754Z,0
2019-05-03T01:00:38.146Z,0
2019-05-03T01:01:39.565Z,0
2019-05-03T01:02:42.292Z,0
2019-05-03T01:03:42.346Z,0
2019-05-03T01:04:43.747Z,0
2019-05-03T01:05:45.145Z,0
2019-05-03T01:06:46.544Z,0
2019-05-03T01:07:47.937Z,0
2019-05-03T01:08:49.328Z,0
2019-05-03T01:09:51.788Z,0
2019-05-03T01:10:52.107Z,0
2019-05-03T01:11:53.507Z,0
2019-05-03T01:12:54.902Z,0
2019-05-03T01:13:56.296Z,0
2019-05-03T01:14:57.692Z,0
2019-05-03T01:15:59.230Z,0
2019-05-03T01:17:02.502Z,0
2019-05-03T01:18:02.088Z,0
2019-05-03T01:19:03.487Z,0
2019-05-03T01:20:04.912Z,0
2019-05-03T01:21:06.299Z,0
2019-05-03T01:22:07.702Z,0
2019-05-03T01:23:09.115Z,0
2019-05-03T01:24:12.177Z,0
2019-05-03T01:25:12.041Z,0
2019-05-03T01:26:13.293Z,0
2019-05-03T01:27:14.712Z,0
2019-05-03T01:28:16.114Z,0
2019-05-03T01:29:17.504Z,0
2019-05-03T01:30:18.893Z,0
2019-05-03T01:31:22.522Z,0
2019-05-03T01:32:22.253Z,0
2019-05-03T01:33:23.074Z,0
2019-05-03T01:34:24.473Z,0
2019-05-03T01:35:25.863Z,0
2019-05-03T01:36:27.250Z,0
2019-05-03T01:37:28.647Z,0
2019-05-03T01:38:31.730Z,0
2019-05-03T01:39:31.603Z,0
2019-05-03T01:40:32.852Z,0
2019-05-03T01:41:34.258Z,0
2019-05-03T01:42:35.645Z,0
2019-05-03T01:43:37.045Z,0
2019-05-03T01:44:38.458Z,0
2019-05-03T01:45:39.847Z,0
2019-05-03T01:46:42.194Z,0
2019-05-03T01:47:42.615Z,0
2019-05-03T01:48:44.009Z,0
2019-05-03T01:49:45.410Z,0
2019-05-03T01:50:46.802Z,0
2019-05-03T01:51:48.196Z,0
2019-05-03T01:52:49.591Z,0
2019-05-03T01:53:52.367Z,0
2019-05-03T01:54:52.380Z,0
2019-05-03T01:55:53.792Z,0
2019-05-03T01:56:58.851Z,0
2019-05-03T01:57:56.616Z,0
2019-05-03T01:58:58.014Z,0
2019-05-03T01:59:59.405Z,0
2019-05-03T02:01:02.686Z,0
2019-05-03T02:02:02.255Z,0
2019-05-03T02:03:03.519Z,0
2019-05-03T02:04:04.921Z,0
2019-05-03T02:05:06.311Z,0
2019-05-03T02:06:07.738Z,0
2019-05-03T02:07:09.169Z,0
2019-05-03T02:08:12.466Z,0
2019-05-03T02:09:12.207Z,0
2019-05-03T02:10:13.296Z,0
2019-05-03T02:11:14.705Z,0
2019-05-03T02:12:16.096Z,0
2019-05-03T02:13:17.488Z,0
2019-05-03T02:14:18.876Z,0
2019-05-03T02:15:22.004Z,0
2019-05-03T02:16:21.859Z,0
2019-05-03T02:17:23.041Z,0
2019-05-03T02:18:24.440Z,0
2019-05-03T02:19:25.854Z,0
2019-05-03T02:20:27.240Z,0
2019-05-03T02:21:28.644Z,0
2019-05-03T02:22:31.908Z,0
2019-05-03T02:23:31.973Z,0
2019-05-03T02:24:32.902Z,0
2019-05-03T02:25:34.175Z,0
2019-05-03T02:26:35.577Z,0
2019-05-03T02:27:36.968Z,0
2019-05-03T02:28:38.362Z,0
2019-05-03T02:29:41.737Z,0
2019-05-03T02:30:43.692Z,0
2019-05-03T02:31:43.616Z,0
2019-05-03T02:32:44.301Z,0
2019-05-03T02:33:45.201Z,0
2019-05-03T02:34:46.640Z,0
2019-05-03T02:35:48.082Z,0
2019-05-03T02:36:49.537Z,0
2019-05-03T02:37:52.991Z,0
2019-05-03T02:38:53.496Z,0
2019-05-03T02:39:53.633Z,0
2019-05-03T02:40:55.044Z,0
2019-05-03T02:42:02.864Z,0
2019-05-03T02:42:57.816Z,0
2019-05-03T02:43:59.208Z,0
2019-05-03T02:45:00.605Z,0
2019-05-03T02:46:02.001Z,0
2019-05-03T02:47:05.340Z,0
2019-05-03T02:48:06.038Z,0
2019-05-03T02:49:06.541Z,0
2019-05-03T02:50:07.498Z,0
2019-05-03T02:51:08.882Z,0
2019-05-03T02:52:10.302Z,0
2019-05-03T02:53:11.699Z,0
2019-05-03T02:54:15.501Z,0
2019-05-03T02:55:16.069Z,0
2019-05-03T02:56:22.185Z,0
2019-05-03T02:57:17.214Z,0
2019-05-03T02:58:18.779Z,0
2019-05-03T02:59:20.208Z,0
2019-05-03T03:00:21.624Z,0
2019-05-03T03:01:23.029Z,0
2019-05-03T03:02:26.377Z,0
2019-05-03T03:03:25.815Z,0
2019-05-03T03:04:27.210Z,0
2019-05-03T03:05:28.600Z,0
2019-05-03T03:06:29.996Z,0
2019-05-03T03:07:31.408Z,0
2019-05-03T03:08:33.583Z,0
2019-05-03T03:09:35.973Z,0
2019-05-03T03:10:35.632Z,0
2019-05-03T03:11:36.899Z,0
2019-05-03T03:12:38.292Z,0
2019-05-03T03:13:39.691Z,0
2019-05-03T03:14:41.105Z,0
2019-05-03T03:15:42.482Z,0
2019-05-03T03:16:45.506Z,0
2019-05-03T03:17:45.707Z,0
2019-05-03T03:18:46.601Z,0
2019-05-03T03:19:47.989Z,0
2019-05-03T03:20:49.384Z,0
2019-05-03T03:21:50.781Z,0
2019-05-03T03:22:52.165Z,0
2019-05-03T03:23:55.921Z,0
2019-05-03T03:24:55.919Z,0
2019-05-03T03:25:56.268Z,0
2019-05-03T03:26:57.662Z,0
2019-05-03T03:27:59.054Z,0
2019-05-03T03:29:00.481Z,0
2019-05-03T03:30:01.870Z,0
2019-05-03T03:31:07.960Z,0
2019-05-03T03:32:08.799Z,0
2019-05-03T03:33:08.627Z,0
2019-05-03T03:34:08.466Z,0
2019-05-03T03:35:11.749Z,0
2019-05-03T03:36:37.578Z,0
2019-05-03T03:37:11.487Z,0
2019-05-03T03:38:15.341Z,0
2019-05-03T03:39:15.149Z,0
2019-05-03T03:40:15.996Z,0
2019-05-03T03:41:17.009Z,0
2019-05-03T03:42:18.380Z,0
2019-05-03T03:43:19.767Z,4
2019-05-03T03:44:21.156Z,4
2019-05-03T03:45:25.164Z,4
2019-05-03T03:46:25.196Z,0
2019-05-03T03:47:27.335Z,0
2019-05-03T03:48:26.750Z,4
2019-05-03T03:49:27.991Z,4
2019-05-03T03:50:29.480Z,4
2019-05-03T03:51:30.915Z,4
2019-05-03T03:52:32.344Z,4
2019-05-03T03:53:35.623Z,4
2019-05-03T03:54:35.530Z,4
2019-05-03T03:55:36.493Z,8
2019-05-03T03:56:54.728Z,4
2019-05-03T03:57:39.253Z,8
2019-05-03T03:58:40.642Z,8
2019-05-03T03:59:42.036Z,12
2019-05-03T04:00:46.179Z,12
2019-05-03T04:01:45.711Z,12
2019-05-03T04:02:46.168Z,16
2019-05-03T04:03:47.561Z,16
2019-05-03T04:04:48.969Z,16
2019-05-03T04:05:50.360Z,24
2019-05-03T04:06:51.756Z,24
2019-05-03T04:07:55.892Z,28
2019-05-03T04:08:56.079Z,28
2019-05-03T04:09:56.244Z,32
2019-05-03T04:10:57.219Z,32
2019-05-03T04:11:58.625Z,40
2019-05-03T04:13:00.027Z,40
2019-05-03T04:14:01.412Z,48
2019-05-03T04:15:05.471Z,48
2019-05-03T04:16:05.539Z,52
2019-05-03T04:17:05.881Z,56
2019-05-03T04:18:06.898Z,60
2019-05-03T04:19:08.303Z,64
2019-05-03T04:20:09.700Z,68
2019-05-03T04:21:11.090Z,72
2019-05-03T04:22:12.483Z,76
2019-05-03T04:23:16.164Z,76
2019-05-03T04:24:16.302Z,80
2019-05-03T04:25:16.621Z,84
2019-05-03T04:26:18.025Z,88
2019-05-03T04:27:23.530Z,96
2019-05-03T04:28:20.787Z,100
2019-05-03T04:29:22.179Z,104
2019-05-03T04:30:25.451Z,108
2019-05-03T04:31:26.203Z,108
2019-05-03T04:32:29.030Z,112
2019-05-03T04:33:27.668Z,112
2019-05-03T04:34:29.090Z,112
2019-05-03T04:35:30.538Z,112
2019-05-03T04:36:31.947Z,108
2019-05-03T04:37:35.711Z,108
2019-05-03T04:38:35.475Z,112
2019-05-03T04:39:36.299Z,112
2019-05-03T04:40:37.670Z,108
2019-05-03T04:41:39.220Z,100
2019-05-03T04:42:40.622Z,96
2019-05-03T04:43:42.053Z,92
2019-05-03T04:44:45.509Z,92
2019-05-03T04:45:45.611Z,92
2019-05-03T04:46:46.523Z,88
2019-05-03T04:47:47.525Z,92
2019-05-03T04:48:48.933Z,92
2019-05-03T04:49:50.352Z,88
2019-05-03T04:50:51.740Z,88
2019-05-03T04:51:55.922Z,88
2019-05-03T04:52:56.760Z,80
2019-05-03T04:53:56.039Z,76
2019-05-03T04:54:57.529Z,76
2019-05-03T04:55:59.017Z,80
2019-05-03T04:57:00.435Z,84
2019-05-03T04:58:01.822Z,80
2019-05-03T04:59:05.068Z,80
2019-05-03T05:00:06.037Z,88
2019-05-03T05:01:06.220Z,92
2019-05-03T05:02:07.426Z,120
2019-05-03T05:03:08.814Z,208
2019-05-03T05:04:10.218Z,264
2019-05-03T05:05:11.660Z,300
2019-05-03T05:06:15.246Z,296
2019-05-03T05:07:15.514Z,296
2019-05-03T05:08:16.263Z,308
2019-05-03T05:09:17.260Z,304
2019-05-03T05:10:18.675Z,300
2019-05-03T05:11:20.078Z,292
2019-05-03T05:12:21.479Z,308
2019-05-03T05:13:24.823Z,312
2019-05-03T05:14:25.814Z,320
2019-05-03T05:15:26.487Z,324
2019-05-03T05:16:27.098Z,328
2019-05-03T05:17:28.554Z,316
2019-05-03T05:18:29.946Z,288
2019-05-03T05:19:31.364Z,300
2019-05-03T05:20:34.953Z,352
2019-05-03T05:21:35.503Z,380
2019-05-03T05:22:35.630Z,384
2019-05-03T05:23:37.054Z,396
2019-05-03T05:24:38.529Z,404
2019-05-03T05:25:39.947Z,408
2019-05-03T05:26:41.377Z,408
2019-05-03T05:27:48.706Z,388
2019-05-03T05:28:44.767Z,392
2019-05-03T05:29:46.131Z,388
2019-05-03T05:30:48.549Z,372
2019-05-03T05:45:11.470Z,308
2019-05-03T05:48:39.441Z,372
2019-05-03T05:54:45.469Z,340
2019-05-03T05:55:46.032Z,304
2019-05-03T05:56:47.706Z,248
2019-05-03T05:58:01.285Z,216
2019-05-03T06:00:50.692Z,196
2019-05-03T06:01:52.563Z,200
2019-05-03T06:02:55.159Z,252
2019-05-03T06:03:56.295Z,288
2019-05-03T06:04:58.211Z,324
2019-05-03T06:05:59.628Z,360
2019-05-03T06:07:01.057Z,400
2019-05-03T06:08:02.496Z,476
2019-05-03T06:09:05.090Z,536
2019-05-03T06:10:05.405Z,588
2019-05-03T06:11:06.799Z,588
2019-05-03T06:12:08.414Z,548
2019-05-03T06:13:09.883Z,512
2019-05-03T06:14:11.363Z,488
2019-05-03T06:15:14.924Z,476
2019-05-03T06:16:15.522Z,464
2019-05-03T06:17:15.741Z,460
2019-05-03T06:18:17.118Z,452
2019-05-03T06:19:18.543Z,448
2019-05-03T06:20:20.038Z,448
2019-05-03T06:21:21.490Z,460
2019-05-03T06:22:23.038Z,476
2019-05-03T06:23:24.772Z,496
2019-05-03T06:24:25.926Z,512
2019-05-03T06:25:27.397Z,528
2019-05-03T06:26:28.903Z,548
2019-05-03T06:27:30.418Z,584
2019-05-03T06:28:31.856Z,640
2019-05-03T06:29:35.067Z,716
2019-05-03T06:30:35.112Z,812
2019-05-03T06:31:36.177Z,904
2019-05-03T06:32:37.721Z,960
2019-05-03T06:33:39.202Z,1028
2019-05-03T06:34:40.721Z,1076
2019-05-03T06:35:42.162Z,1104
2019-05-03T06:36:44.276Z,1120
2019-05-03T06:37:45.853Z,1136
2019-05-03T06:38:46.615Z,1140
2019-05-03T06:40:27.781Z,1168
2019-05-03T06:41:29.350Z,1188
2019-05-03T06:42:30.983Z,1184
2019-05-03T06:43:34.654Z,1196
2019-05-03T06:44:34.948Z,1208
2019-05-03T06:45:35.930Z,1208
2019-05-03T06:46:37.541Z,1212
2019-05-03T06:47:40.392Z,1188
2019-05-03T06:48:40.686Z,1176
2019-05-03T06:49:44.951Z,1188
2019-05-03T06:50:45.278Z,1188
2019-05-03T06:51:49.319Z,1244
2019-05-03T06:52:46.899Z,1300
2019-05-03T06:53:50.612Z,1316
2019-05-03T06:54:49.911Z,1324
2019-05-03T06:55:51.494Z,1352
2019-05-03T06:56:52.970Z,1380
2019-05-03T06:57:54.706Z,1404
2019-05-03T06:58:56.082Z,1396
2019-05-03T06:59:58.215Z,1388
2019-05-03T07:00:59.689Z,1420
2019-05-03T07:02:01.284Z,1468
2019-05-03T07:03:04.806Z,1496
2019-05-03T07:04:05.140Z,1488
2019-05-03T07:05:05.942Z,1456
2019-05-03T07:06:07.605Z,1412
2019-05-03T07:07:09.173Z,1452
2019-05-03T07:08:10.582Z,1524
2019-05-03T07:09:12.047Z,1540
2019-05-03T07:10:14.903Z,1520
2019-05-03T07:11:15.431Z,1476
2019-05-03T07:12:16.597Z,1372
2019-05-03T07:13:18.126Z,1288
2019-05-03T07:14:19.656Z,1380
2019-05-03T07:15:21.467Z,1492
2019-05-03T07:16:25.130Z,1380
2019-05-03T07:17:24.811Z,1276
2019-05-03T07:18:25.817Z,1284
2019-05-03T07:19:27.265Z,1276
2019-05-03T07:20:28.860Z,1172
2019-05-03T07:21:30.625Z,1232
2019-05-03T07:22:32.212Z,1304
2019-05-03T07:23:34.995Z,1284
2019-05-03T07:24:40.411Z,1256
2019-05-03T07:25:36.668Z,1360
2019-05-03T07:26:38.253Z,1532
2019-05-03T07:27:39.768Z,1472
2019-05-03T07:28:47.029Z,1476
2019-05-03T07:29:44.531Z,1440
2019-05-03T07:30:45.450Z,1516
2019-05-03T07:31:45.714Z,1588
2019-05-03T07:32:47.279Z,1716
2019-05-03T07:33:48.807Z,1740
2019-05-03T07:34:51.250Z,1724
2019-05-03T07:35:54.668Z,1744
2019-05-03T07:36:55.508Z,1784
2019-05-03T07:37:55.719Z,1784
2019-05-03T07:38:57.167Z,1632
2019-05-03T07:39:58.725Z,1568
2019-05-03T07:41:00.157Z,1724
2019-05-03T07:42:01.726Z,1728
2019-05-03T07:43:04.539Z,1576
2019-05-03T07:44:05.353Z,1612
2019-05-03T07:45:06.202Z,1596
2019-05-03T07:46:07.799Z,1508
2019-05-03T07:47:09.514Z,1500
2019-05-03T07:48:10.941Z,1480
2019-05-03T07:49:12.526Z,1452
2019-05-03T07:50:15.299Z,1508
2019-05-03T07:51:15.480Z,1564
2019-05-03T07:52:17.009Z,1468
2019-05-03T07:53:18.505Z,1564
2019-05-03T07:54:20.185Z,1744
2019-05-03T07:55:21.706Z,1768
2019-05-03T07:56:23.108Z,1728
2019-05-03T07:57:25.425Z,1700
2019-05-03T07:58:26.172Z,1628
2019-05-03T07:59:27.747Z,1640
2019-05-03T08:00:29.230Z,1596
2019-05-03T08:01:30.768Z,1792
2019-05-03T08:02:32.328Z,1896
2019-05-03T08:03:34.854Z,1844
2019-05-03T08:04:36.098Z,2024
2019-05-03T08:05:37.635Z,2132
2019-05-03T08:06:39.157Z,2240
2019-05-03T08:07:40.652Z,1888
2019-05-03T08:08:42.211Z,1996
2019-05-03T08:09:45.177Z,2132
2019-05-03T08:10:45.268Z,2196
2019-05-03T08:11:46.684Z,2356
2019-05-03T08:12:48.179Z,2172
2019-05-03T08:13:49.748Z,1568
2019-05-03T08:14:51.303Z,1632
2019-05-03T08:15:52.795Z,1704
2019-05-03T08:16:54.787Z,1720
2019-05-03T08:17:55.761Z,1560
2019-05-03T08:18:57.273Z,1472
2019-05-03T08:19:58.734Z,1468
2019-05-03T08:21:00.243Z,1576
2019-05-03T08:22:01.753Z,1748
2019-05-03T08:23:05.095Z,1956
2019-05-03T08:24:04.800Z,1656
2019-05-03T08:25:06.267Z,1604
2019-05-03T08:26:07.800Z,1748
2019-05-03T08:27:09.342Z,1812
2019-05-03T08:28:10.867Z,1892
2019-05-03T08:29:15.918Z,1572
2019-05-03T08:30:14.749Z,1332
2019-05-03T08:31:15.384Z,1440
2019-05-03T08:32:16.886Z,1716
2019-05-03T08:33:18.450Z,1680
2019-05-03T08:34:19.883Z,1548
2019-05-03T08:35:21.302Z,1300
2019-05-03T08:36:24.633Z,1076
2019-05-03T08:37:24.473Z,820
2019-05-03T08:38:25.715Z,688
2019-05-03T08:39:27.123Z,636
2019-05-03T08:40:28.608Z,612
2019-05-03T08:41:30.031Z,600
2019-05-03T08:42:31.655Z,564
2019-05-03T08:43:33.147Z,584
2019-05-03T08:44:35.332Z,620
2019-05-03T08:45:36.233Z,636
2019-05-03T08:46:37.783Z,652
2019-05-03T08:47:39.286Z,736
2019-05-03T08:48:40.800Z,828
2019-05-03T08:49:42.317Z,952
2019-05-03T08:50:45.131Z,1052
2019-05-03T08:51:45.273Z,1128
2019-05-03T08:52:46.875Z,1192
2019-05-03T08:53:48.425Z,1396
2019-05-03T08:54:49.987Z,1648
2019-05-03T08:55:51.491Z,1840
2019-05-03T08:56:53.017Z,1860
2019-05-03T08:57:55.170Z,1920
2019-05-03T08:58:55.920Z,2040
2019-05-03T08:59:57.391Z,2300
2019-05-03T09:00:58.895Z,2696
2019-05-03T09:02:03.503Z,2780
2019-05-03T09:03:01.858Z,2672
2019-05-03T09:04:04.829Z,2100
2019-05-03T09:05:05.245Z,2012
2019-05-03T09:06:06.594Z,2288
2019-05-03T09:07:08.000Z,2668
2019-05-03T09:08:09.594Z,2244
2019-05-03T09:09:11.132Z,2508
2019-05-03T09:10:16.571Z,1880
2019-05-03T09:11:15.490Z,1900
2019-05-03T09:12:15.638Z,2068
2019-05-03T09:13:17.130Z,1812
2019-05-03T09:14:18.625Z,1892
2019-05-03T09:15:21.690Z,2176
2019-05-03T09:16:21.644Z,2336
2019-05-03T09:17:24.532Z,2700
2019-05-03T09:18:25.863Z,3032
2019-05-03T09:19:25.986Z,2924
2019-05-03T09:20:27.701Z,2904
2019-05-03T09:21:29.252Z,4640
2019-05-03T09:22:30.837Z,2848
2019-05-03T09:23:32.460Z,2784
2019-05-03T09:24:35.134Z,3384
2019-05-03T09:25:35.525Z,2748
2019-05-03T09:26:36.772Z,2312
2019-05-03T09:27:38.310Z,2176
2019-05-03T09:28:39.739Z,2028
2019-05-03T09:29:43.527Z,2104
2019-05-03T09:30:44.597Z,2116
2019-05-03T09:31:44.679Z,2488
2019-05-03T09:32:45.560Z,2784
2019-05-03T09:33:47.058Z,3020
2019-05-03T09:34:48.503Z,2732
2019-05-03T09:35:49.981Z,2528
2019-05-03T09:36:51.486Z,2688
2019-05-03T09:37:53.032Z,2732
2019-05-03T09:38:54.877Z,2904
2019-05-03T09:39:56.114Z,3356
2019-05-03T09:40:57.588Z,3208
2019-05-03T09:41:59.110Z,2404
2019-05-03T09:43:00.616Z,2472
2019-05-03T09:44:02.185Z,2704
2019-05-03T09:45:04.917Z,3092
2019-05-03T09:46:05.266Z,6476
2019-05-03T09:47:06.736Z,5316
2019-05-03T09:48:08.249Z,4280
2019-05-03T09:49:13.322Z,2260
2019-05-03T09:50:11.173Z,4080
2019-05-03T09:51:14.552Z,4780
2019-05-03T09:52:15.999Z,4124
2019-05-03T09:53:15.737Z,2480
2019-05-03T09:54:17.158Z,3292
2019-05-03T09:55:18.642Z,4688
2019-05-03T09:56:20.136Z,4632
2019-05-03T09:57:21.686Z,4604
2019-05-03T09:58:23.067Z,4640
2019-05-03T09:59:25.498Z,4684
2019-05-03T10:00:26.180Z,4712
2019-05-03T10:01:27.676Z,4884
2019-05-03T10:02:29.146Z,5432
2019-05-03T10:03:30.567Z,5996
2019-05-03T10:04:32.089Z,3028
2019-05-03T10:05:35.062Z,5672
2019-05-03T10:06:35.953Z,2072
2019-05-03T10:07:36.515Z,2468
2019-05-03T10:08:37.938Z,2736
2019-05-03T10:09:39.438Z,2892
2019-05-03T10:10:40.827Z,2808
2019-05-03T10:11:45.537Z,1852
2019-05-03T10:12:43.698Z,2268
2019-05-03T10:13:48.228Z,2428
2019-05-03T10:14:46.709Z,2460
2019-05-03T10:15:48.331Z,2376
2019-05-03T10:16:49.680Z,2116
2019-05-03T10:17:51.183Z,2416
2019-05-03T10:18:52.694Z,2492
2019-05-03T10:19:54.727Z,6088
2019-05-03T10:20:56.112Z,5776
2019-05-03T10:21:57.192Z,2660
2019-05-03T10:22:58.702Z,5644
2019-05-03T10:24:00.206Z,3276
2019-05-03T10:25:01.680Z,4076
2019-05-03T10:26:04.993Z,12780
2019-05-03T10:27:05.574Z,12280
2019-05-03T10:28:05.911Z,6320
2019-05-03T10:29:07.415Z,17280
2019-05-03T10:30:12.508Z,8424
2019-05-03T10:31:10.283Z,8460
2019-05-03T10:32:11.969Z,13608
2019-05-03T10:33:15.318Z,2804
2019-05-03T10:34:15.531Z,4176
2019-05-03T10:35:16.243Z,33984
2019-05-03T10:36:17.723Z,7536
2019-05-03T10:37:19.193Z,2588
2019-05-03T10:38:20.682Z,2944
2019-05-03T10:39:22.221Z,8348
2019-05-03T10:40:24.362Z,7280
2019-05-03T10:41:25.286Z,9492
2019-05-03T10:42:26.680Z,26368
2019-05-03T10:43:28.123Z,8224
2019-05-03T10:44:29.536Z,7944
2019-05-03T10:45:31.049Z,3676
2019-05-03T10:46:34.348Z,3032
2019-05-03T10:47:34.946Z,3608
2019-05-03T10:48:35.732Z,3556
2019-05-03T10:49:36.909Z,1872
2019-05-03T10:50:38.311Z,1832
2019-05-03T10:51:39.836Z,2012
2019-05-03T10:52:41.432Z,1796
2019-05-03T10:53:42.992Z,1952
2019-05-03T10:54:45.863Z,2448
2019-05-03T10:55:45.813Z,5716
2019-05-03T10:56:47.368Z,2992
2019-05-03T10:57:48.832Z,3700
2019-05-03T10:58:50.340Z,3768
2019-05-03T10:59:51.811Z,3804
2019-05-03T11:00:53.636Z,3720
2019-05-03T11:01:54.813Z,7084
2019-05-03T11:02:56.320Z,11752
2019-05-03T11:03:57.781Z,4640
2019-05-03T11:04:59.288Z,8812
2019-05-03T11:06:00.791Z,12280
2019-05-03T11:07:02.276Z,10920
2019-05-03T11:08:05.027Z,3004
2019-05-03T11:09:05.641Z,3372
2019-05-03T11:10:06.683Z,8340
2019-05-03T11:11:08.169Z,16608
2019-05-03T11:12:09.706Z,4148
2019-05-03T11:13:11.362Z,4008
2019-05-03T11:14:14.766Z,5232
2019-05-03T11:15:14.998Z,6192
2019-05-03T11:16:15.861Z,13076
2019-05-03T11:17:17.415Z,5876
2019-05-03T11:18:18.854Z,4116
2019-05-03T11:19:20.274Z,9972
2019-05-03T11:20:28.417Z,3040
2019-05-03T11:21:30.313Z,17216
2019-05-03T11:22:25.206Z,4392
2019-05-03T11:23:26.160Z,9736
2019-05-03T11:24:27.690Z,57440
2019-05-03T11:25:29.155Z,68544
2019-05-03T11:26:30.667Z,18464
2019-05-03T11:27:32.081Z,5972
2019-05-03T11:28:35.237Z,6724
2019-05-03T11:29:35.614Z,9840
2019-05-03T11:30:36.595Z,8784
2019-05-03T11:31:38.141Z,8680
2019-05-03T11:32:39.640Z,9356
2019-05-03T11:33:41.088Z,7376
2019-05-03T11:34:44.792Z,8976
2019-05-03T11:35:44.663Z,7256
2019-05-03T11:36:45.518Z,8884
2019-05-03T11:37:47.059Z,8872
2019-05-03T11:38:48.539Z,8844
2019-05-03T11:39:50.032Z,5428
2019-05-03T11:40:51.486Z,8792
2019-05-03T11:41:52.948Z,8728
2019-05-03T11:42:55.382Z,8444
2019-05-03T11:43:55.796Z,8496
2019-05-03T11:44:57.224Z,6924
2019-05-03T11:45:58.743Z,3628
2019-05-03T11:47:00.146Z,6560
2019-05-03T11:48:01.586Z,7428
2019-05-03T11:49:03.083Z,5672
2019-05-03T11:50:04.527Z,5000
2019-05-03T11:51:05.883Z,9428
2019-05-03T11:52:07.379Z,3372
2019-05-03T11:53:08.880Z,8472
2019-05-03T11:54:10.356Z,4952
2019-05-03T11:55:12.250Z,8572
2019-05-03T11:56:14.690Z,2072
2019-05-03T11:57:15.765Z,1704
2019-05-03T11:58:15.983Z,1904
2019-05-03T11:59:17.417Z,8752
2019-05-03T12:00:18.926Z,8664
2019-05-03T12:01:20.651Z,8832
2019-05-03T12:02:21.997Z,6836
2019-05-03T12:03:24.996Z,8212
2019-05-03T12:04:25.914Z,3264
2019-05-03T12:05:27.698Z,3792
2019-05-03T12:06:30.600Z,4384
2019-05-03T12:07:38.829Z,5804
2019-05-03T12:08:36.309Z,9072
2019-05-03T12:09:37.995Z,4288
2019-05-03T12:10:52.202Z,2588
2019-05-03T12:11:41.643Z,2252
2019-05-03T12:12:44.552Z,3300
2019-05-03T12:13:45.901Z,4952
2019-05-03T12:14:48.697Z,3816
2019-05-03T12:15:50.323Z,2972
2019-05-03T12:17:14.447Z,3120
2019-05-03T12:17:59.191Z,3312
2019-05-03T12:19:12.736Z,4052
2019-05-03T12:20:02.943Z,9564
2019-05-03T12:21:05.217Z,8928
2019-05-03T12:22:07.170Z,9404
2019-05-03T12:23:09.350Z,9072
2019-05-03T12:24:11.111Z,3456
2019-05-03T12:25:13.907Z,3152
2019-05-03T12:26:17.010Z,9324
2019-05-03T12:27:16.827Z,4416
2019-05-03T12:28:19.099Z,3476
2019-05-03T12:29:20.687Z,4376
2019-05-03T12:30:24.833Z,8560
2019-05-03T12:31:33.375Z,7428
2019-05-03T12:32:25.088Z,7044
2019-05-03T12:33:26.488Z,7372
2019-05-03T12:34:27.931Z,4964
2019-05-03T12:35:29.653Z,7452
2019-05-03T12:36:31.124Z,4264
2019-05-03T12:37:32.597Z,4572
2019-05-03T12:38:34.915Z,7372
2019-05-03T12:39:35.944Z,4956
2019-05-03T12:40:37.611Z,4776
2019-05-03T12:41:39.120Z,7672
2019-05-03T12:42:40.560Z,6400
2019-05-03T12:43:42.078Z,4768
2019-05-03T12:44:45.883Z,3892
2019-05-03T12:45:45.045Z,7408
2019-05-03T12:46:49.505Z,7968
2019-05-03T12:47:50.998Z,7340
2019-05-03T12:48:52.434Z,8172
2019-05-03T12:49:55.747Z,7140
2019-05-03T12:50:55.850Z,7892
2019-05-03T12:51:56.826Z,7484
2019-05-03T12:52:58.277Z,5292
2019-05-03T12:53:59.728Z,4284
2019-05-03T12:55:01.365Z,7280
2019-05-03T12:56:09.666Z,5440
2019-05-03T12:57:05.070Z,4656
2019-05-03T12:58:06.356Z,5392
2019-05-03T12:59:06.985Z,4180
2019-05-03T13:00:10.767Z,5844
2019-05-03T13:01:13.089Z,8852
2019-05-03T13:02:15.530Z,9264
2019-05-03T13:03:17.106Z,6108
2019-05-03T13:04:19.231Z,8440
2019-05-03T13:05:21.525Z,6812
2019-05-03T13:06:22.955Z,6876
2019-05-03T13:07:24.547Z,5960
2019-05-03T13:08:25.953Z,6020
2019-05-03T13:09:27.447Z,3300
2019-05-03T13:10:29.716Z,5704
2019-05-03T13:11:33.965Z,3772
2019-05-03T13:12:34.597Z,8136
2019-05-03T13:13:35.924Z,7056
2019-05-03T13:14:36.702Z,6432
2019-05-03T13:15:38.466Z,6508
2019-05-03T13:16:39.994Z,6332
2019-05-03T13:17:41.439Z,5292
2019-05-03T13:18:42.920Z,5080
2019-05-03T13:19:46.137Z,4012
2019-05-03T13:20:47.615Z,3296
2019-05-03T13:21:49.131Z,2848
2019-05-03T13:22:50.584Z,2672
2019-05-03T13:23:52.078Z,2752
2019-05-03T13:24:54.517Z,2800
2019-05-03T13:25:55.049Z,2640
2019-05-03T13:26:56.482Z,2648
2019-05-03T13:27:57.976Z,2504
2019-05-03T13:28:59.816Z,2424
2019-05-03T13:30:01.142Z,2372
2019-05-03T13:31:02.734Z,2300
2019-05-03T13:32:05.623Z,2304
2019-05-03T13:33:06.942Z,2332
2019-05-03T13:34:09.146Z,2224
2019-05-03T13:35:10.657Z,2236
2019-05-03T13:36:12.184Z,2428
2019-05-03T13:37:15.051Z,2964
2019-05-03T13:38:15.219Z,2996
2019-05-03T13:39:16.721Z,3260
2019-05-03T13:40:18.229Z,3404
2019-05-03T13:41:19.798Z,3404
2019-05-03T13:42:21.228Z,3312
2019-05-03T13:43:22.750Z,3192
2019-05-03T13:44:26.435Z,3068
2019-05-03T13:45:28.019Z,3120
2019-05-03T13:46:30.418Z,3056
2019-05-03T13:47:32.531Z,3264
2019-05-03T13:48:42.668Z,2820
2019-05-03T13:49:37.182Z,2688
2019-05-03T13:50:39.619Z,2648
2019-05-03T13:51:41.156Z,2624
2019-05-03T13:52:45.124Z,2484
2019-05-03T13:53:48.306Z,2400
2019-05-03T13:54:50.555Z,2220
2019-05-03T13:55:52.257Z,2140
2019-05-03T13:56:55.143Z,2144
2019-05-03T13:57:55.112Z,2120
2019-05-03T13:58:56.700Z,2124
2019-05-03T13:59:58.297Z,2100
2019-05-03T14:01:01.483Z,2004
2019-05-03T14:02:12.402Z,1908
2019-05-03T14:03:04.724Z,1916
2019-05-03T14:04:07.871Z,1916
2019-05-03T14:05:10.111Z,2076
2019-05-03T14:06:12.342Z,2120
2019-05-03T14:07:15.715Z,2292
2019-05-03T14:08:18.037Z,2084
2019-05-03T14:09:19.664Z,2248
2019-05-03T14:10:21.157Z,2264
2019-05-03T14:11:22.663Z,2512
2019-05-03T14:12:24.924Z,2612
2019-05-03T14:13:26.416Z,2576
2019-05-03T14:14:27.914Z,2524
2019-05-03T14:15:29.335Z,2300
2019-05-03T14:16:30.762Z,2124
2019-05-03T14:17:32.345Z,2116
2019-05-03T14:18:35.162Z,2128
2019-05-03T14:19:35.425Z,1900
2019-05-03T14:20:38.795Z,1552
2019-05-03T14:21:40.320Z,1192
2019-05-03T14:22:41.955Z,940
2019-05-03T14:23:45.078Z,788
2019-05-03T14:24:46.667Z,796
2019-05-03T14:25:48.088Z,884
2019-05-03T14:26:49.677Z,944
2019-05-03T14:27:51.413Z,948
2019-05-03T14:28:54.845Z,876
2019-05-03T14:29:56.312Z,712
2019-05-03T14:30:59.252Z,624
2019-05-03T14:32:00.777Z,648
2019-05-03T14:33:02.311Z,700